sensor_id;sensor_type;location;lat;lon;timestamp;P1;durP1;ratioP1;P2;durP2;ratioP2
59271;SDS011;45043;51.068;7.026;2023-10-31T00:00:36;2.90;;;2.40;;
59271;SDS011;45043;51.068;7.026;2023-10-31T00:03:37;2.93;;;2.73;;
59271;SDS011;45043;51.068;7.026;2023-10-31T00:06:41;2.47;;;2.37;;
59271;SDS011;45043;51.068;7.026;2023-10-31T00:09:42;2.73;;;2.53;;
59271;SDS011;45043;51.068;7.026;2023-10-31T00:12:42;2.90;;;2.70;;
59271;SDS011;45043;51.068;7.026;2023-10-31T00:15:43;2.70;;;2.50;;
59271;SDS011;45043;51.068;7.026;2023-10-31T00:18:44;2.90;;;2.70;;
59271;SDS011;45043;51.068;7.026;2023-10-31T00:21:45;3.13;;;2.73;;
59271;SDS011;45043;51.068;7.026;2023-10-31T00:24:46;2.97;;;2.77;;
59271;SDS011;45043;51.068;7.026;2023-10-31T00:27:47;3.40;;;3.20;;
59271;SDS011;45043;51.068;7.026;2023-10-31T00:30:48;3.10;;;2.90;;
59271;SDS011;45043;51.068;7.026;2023-10-31T00:33:49;2.90;;;2.70;;
59271;SDS011;45043;51.068;7.026;2023-10-31T00:36:49;2.60;;;2.40;;
59271;SDS011;45043;51.068;7.026;2023-10-31T00:39:51;2.60;;;2.40;;
59271;SDS011;45043;51.068;7.026;2023-10-31T00:43:01;2.73;;;2.53;;
59271;SDS011;45043;51.068;7.026;2023-10-31T00:46:03;2.70;;;2.50;;
59271;SDS011;45043;51.068;7.026;2023-10-31T00:49:04;2.90;;;2.70;;
59271;SDS011;45043;51.068;7.026;2023-10-31T00:52:05;2.90;;;2.70;;
59271;SDS011;45043;51.068;7.026;2023-10-31T00:55:06;4.00;;;3.60;;
59271;SDS011;45043;51.068;7.026;2023-10-31T00:58:07;3.20;;;3.00;;
59271;SDS011;45043;51.068;7.026;2023-10-31T01:01:09;4.10;;;3.80;;
59271;SDS011;45043;51.068;7.026;2023-10-31T01:04:10;5.13;;;3.80;;
59271;SDS011;45043;51.068;7.026;2023-10-31T01:07:11;6.43;;;4.13;;
59271;SDS011;45043;51.068;7.026;2023-10-31T01:10:12;4.30;;;4.00;;
59271;SDS011;45043;51.068;7.026;2023-10-31T01:13:13;3.93;;;3.63;;
59271;SDS011;45043;51.068;7.026;2023-10-31T01:16:14;3.60;;;3.30;;
59271;SDS011;45043;51.068;7.026;2023-10-31T01:19:15;3.10;;;2.90;;
59271;SDS011;45043;51.068;7.026;2023-10-31T01:22:16;3.00;;;2.70;;
59271;SDS011;45043;51.068;7.026;2023-10-31T01:25:18;3.80;;;2.30;;
59271;SDS011;45043;51.068;7.026;2023-10-31T01:28:19;3.50;;;2.20;;
59271;SDS011;45043;51.068;7.026;2023-10-31T01:31:20;3.13;;;2.40;;
59271;SDS011;45043;51.068;7.026;2023-10-31T01:34:21;3.63;;;2.23;;
59271;SDS011;45043;51.068;7.026;2023-10-31T01:37:22;2.60;;;2.20;;
59271;SDS011;45043;51.068;7.026;2023-10-31T01:40:23;3.20;;;2.03;;
59271;SDS011;45043;51.068;7.026;2023-10-31T01:43:33;4.57;;;2.67;;
59271;SDS011;45043;51.068;7.026;2023-10-31T01:46:34;2.93;;;2.40;;
59271;SDS011;45043;51.068;7.026;2023-10-31T01:49:36;6.93;;;2.80;;
59271;SDS011;45043;51.068;7.026;2023-10-31T01:52:38;4.00;;;2.47;;
59271;SDS011;45043;51.068;7.026;2023-10-31T01:55:40;4.70;;;2.70;;
59271;SDS011;45043;51.068;7.026;2023-10-31T01:58:41;4.07;;;2.47;;
59271;SDS011;45043;51.068;7.026;2023-10-31T02:01:44;3.87;;;2.30;;
59271;SDS011;45043;51.068;7.026;2023-10-31T02:04:45;3.17;;;2.60;;
59271;SDS011;45043;51.068;7.026;2023-10-31T02:07:46;3.97;;;2.80;;
59271;SDS011;45043;51.068;7.026;2023-10-31T02:10:47;6.03;;;2.60;;
59271;SDS011;45043;51.068;7.026;2023-10-31T02:13:48;3.57;;;2.60;;
59271;SDS011;45043;51.068;7.026;2023-10-31T02:16:48;6.47;;;3.60;;
59271;SDS011;45043;51.068;7.026;2023-10-31T02:19:49;3.77;;;3.23;;
59271;SDS011;45043;51.068;7.026;2023-10-31T02:22:50;6.57;;;3.13;;
59271;SDS011;45043;51.068;7.026;2023-10-31T02:25:51;4.40;;;3.20;;
59271;SDS011;45043;51.068;7.026;2023-10-31T02:28:51;6.70;;;3.67;;
59271;SDS011;45043;51.068;7.026;2023-10-31T02:31:52;4.50;;;3.27;;
59271;SDS011;45043;51.068;7.026;2023-10-31T02:34:53;4.37;;;3.03;;
59271;SDS011;45043;51.068;7.026;2023-10-31T02:37:54;5.63;;;3.10;;
59271;SDS011;45043;51.068;7.026;2023-10-31T02:40:55;4.70;;;3.23;;
59271;SDS011;45043;51.068;7.026;2023-10-31T02:43:56;4.40;;;3.00;;
59271;SDS011;45043;51.068;7.026;2023-10-31T02:46:58;6.43;;;3.00;;
59271;SDS011;45043;51.068;7.026;2023-10-31T02:49:59;5.33;;;3.00;;
59271;SDS011;45043;51.068;7.026;2023-10-31T02:53:00;5.33;;;3.10;;
59271;SDS011;45043;51.068;7.026;2023-10-31T02:56:01;5.33;;;3.13;;
59271;SDS011;45043;51.068;7.026;2023-10-31T02:59:03;3.73;;;2.90;;
59271;SDS011;45043;51.068;7.026;2023-10-31T03:02:03;3.93;;;2.63;;
59271;SDS011;45043;51.068;7.026;2023-10-31T03:05:04;3.23;;;2.70;;
59271;SDS011;45043;51.068;7.026;2023-10-31T03:08:05;3.63;;;2.90;;
59271;SDS011;45043;51.068;7.026;2023-10-31T03:11:19;5.33;;;2.80;;
59271;SDS011;45043;51.068;7.026;2023-10-31T03:14:22;3.93;;;2.90;;
59271;SDS011;45043;51.068;7.026;2023-10-31T03:17:23;5.53;;;3.33;;
59271;SDS011;45043;51.068;7.026;2023-10-31T03:20:26;3.23;;;2.70;;
59271;SDS011;45043;51.068;7.026;2023-10-31T03:23:28;4.00;;;2.97;;
59271;SDS011;45043;51.068;7.026;2023-10-31T03:26:29;4.93;;;2.90;;
59271;SDS011;45043;51.068;7.026;2023-10-31T03:29:30;6.43;;;3.47;;
59271;SDS011;45043;51.068;7.026;2023-10-31T03:32:31;5.87;;;3.37;;
59271;SDS011;45043;51.068;7.026;2023-10-31T03:35:32;6.60;;;3.63;;
59271;SDS011;45043;51.068;7.026;2023-10-31T03:38:33;3.90;;;3.43;;
59271;SDS011;45043;51.068;7.026;2023-10-31T03:41:35;5.60;;;3.37;;
59271;SDS011;45043;51.068;7.026;2023-10-31T03:44:36;4.83;;;3.50;;
59271;SDS011;45043;51.068;7.026;2023-10-31T03:47:37;6.90;;;3.40;;
59271;SDS011;45043;51.068;7.026;2023-10-31T03:50:38;7.27;;;3.23;;
59271;SDS011;45043;51.068;7.026;2023-10-31T03:53:39;4.17;;;2.90;;
59271;SDS011;45043;51.068;7.026;2023-10-31T03:56:40;4.00;;;2.60;;
59271;SDS011;45043;51.068;7.026;2023-10-31T03:59:43;4.40;;;2.90;;
59271;SDS011;45043;51.068;7.026;2023-10-31T04:02:44;4.53;;;3.27;;
59271;SDS011;45043;51.068;7.026;2023-10-31T04:05:44;4.40;;;2.87;;
59271;SDS011;45043;51.068;7.026;2023-10-31T04:08:45;3.73;;;2.87;;
59271;SDS011;45043;51.068;7.026;2023-10-31T04:11:46;6.10;;;2.50;;
59271;SDS011;45043;51.068;7.026;2023-10-31T04:14:50;4.13;;;2.57;;
59271;SDS011;45043;51.068;7.026;2023-10-31T04:17:51;3.10;;;2.57;;
59271;SDS011;45043;51.068;7.026;2023-10-31T04:20:52;3.20;;;2.40;;
59271;SDS011;45043;51.068;7.026;2023-10-31T04:23:53;2.07;;;1.87;;
59271;SDS011;45043;51.068;7.026;2023-10-31T04:26:54;3.83;;;2.10;;
59271;SDS011;45043;51.068;7.026;2023-10-31T04:29:55;4.57;;;2.30;;
59271;SDS011;45043;51.068;7.026;2023-10-31T04:32:56;4.27;;;2.33;;
59271;SDS011;45043;51.068;7.026;2023-10-31T04:35:57;2.20;;;2.00;;
59271;SDS011;45043;51.068;7.026;2023-10-31T04:38:58;3.00;;;2.20;;
59271;SDS011;45043;51.068;7.026;2023-10-31T04:41:59;2.50;;;2.30;;
59271;SDS011;45043;51.068;7.026;2023-10-31T04:45:00;2.77;;;2.50;;
59271;SDS011;45043;51.068;7.026;2023-10-31T04:48:01;3.97;;;1.90;;
59271;SDS011;45043;51.068;7.026;2023-10-31T04:51:01;3.67;;;2.40;;
59271;SDS011;45043;51.068;7.026;2023-10-31T04:54:03;2.73;;;2.40;;
59271;SDS011;45043;51.068;7.026;2023-10-31T04:57:05;3.60;;;2.53;;
59271;SDS011;45043;51.068;7.026;2023-10-31T05:00:06;2.70;;;2.50;;
59271;SDS011;45043;51.068;7.026;2023-10-31T05:03:09;3.33;;;2.67;;
59271;SDS011;45043;51.068;7.026;2023-10-31T05:06:09;6.03;;;2.83;;
59271;SDS011;45043;51.068;7.026;2023-10-31T05:09:10;3.37;;;2.93;;
59271;SDS011;45043;51.068;7.026;2023-10-31T05:12:12;2.73;;;2.50;;
59271;SDS011;45043;51.068;7.026;2023-10-31T05:15:13;3.40;;;3.00;;
59271;SDS011;45043;51.068;7.026;2023-10-31T05:18:14;3.77;;;2.67;;
59271;SDS011;45043;51.068;7.026;2023-10-31T05:21:18;4.73;;;3.00;;
59271;SDS011;45043;51.068;7.026;2023-10-31T05:24:21;3.30;;;2.87;;
59271;SDS011;45043;51.068;7.026;2023-10-31T05:27:22;3.10;;;2.73;;
59271;SDS011;45043;51.068;7.026;2023-10-31T05:30:22;3.43;;;3.13;;
59271;SDS011;45043;51.068;7.026;2023-10-31T05:33:22;2.83;;;2.60;;
59271;SDS011;45043;51.068;7.026;2023-10-31T05:36:24;4.10;;;2.80;;
59271;SDS011;45043;51.068;7.026;2023-10-31T05:39:26;3.27;;;2.93;;
59271;SDS011;45043;51.068;7.026;2023-10-31T05:42:27;3.50;;;3.10;;
59271;SDS011;45043;51.068;7.026;2023-10-31T05:45:28;3.33;;;3.00;;
59271;SDS011;45043;51.068;7.026;2023-10-31T05:48:30;3.67;;;2.77;;
59271;SDS011;45043;51.068;7.026;2023-10-31T05:51:31;4.33;;;3.17;;
59271;SDS011;45043;51.068;7.026;2023-10-31T05:54:33;6.23;;;2.90;;
59271;SDS011;45043;51.068;7.026;2023-10-31T05:57:34;2.87;;;2.63;;
59271;SDS011;45043;51.068;7.026;2023-10-31T06:00:36;3.40;;;2.67;;
59271;SDS011;45043;51.068;7.026;2023-10-31T06:03:40;3.50;;;2.90;;
59271;SDS011;45043;51.068;7.026;2023-10-31T06:06:42;3.10;;;2.90;;
59271;SDS011;45043;51.068;7.026;2023-10-31T06:09:43;3.63;;;3.00;;
59271;SDS011;45043;51.068;7.026;2023-10-31T06:12:44;3.40;;;3.10;;
59271;SDS011;45043;51.068;7.026;2023-10-31T06:15:45;4.07;;;3.00;;
59271;SDS011;45043;51.068;7.026;2023-10-31T06:18:47;3.07;;;2.77;;
59271;SDS011;45043;51.068;7.026;2023-10-31T06:21:47;4.57;;;2.87;;
59271;SDS011;45043;51.068;7.026;2023-10-31T06:24:48;3.57;;;3.13;;
59271;SDS011;45043;51.068;7.026;2023-10-31T06:27:48;3.40;;;3.20;;
59271;SDS011;45043;51.068;7.026;2023-10-31T06:30:49;3.07;;;2.80;;
59271;SDS011;45043;51.068;7.026;2023-10-31T06:33:49;3.20;;;2.90;;
59271;SDS011;45043;51.068;7.026;2023-10-31T06:36:50;3.27;;;3.00;;
59271;SDS011;45043;51.068;7.026;2023-10-31T06:39:52;3.93;;;3.10;;
59271;SDS011;45043;51.068;7.026;2023-10-31T06:42:53;4.17;;;3.10;;
59271;SDS011;45043;51.068;7.026;2023-10-31T06:45:53;3.37;;;3.07;;
59271;SDS011;45043;51.068;7.026;2023-10-31T06:48:55;3.40;;;3.10;;
59271;SDS011;45043;51.068;7.026;2023-10-31T06:51:55;4.17;;;3.00;;
59271;SDS011;45043;51.068;7.026;2023-10-31T06:54:56;4.03;;;3.73;;
59271;SDS011;45043;51.068;7.026;2023-10-31T06:57:57;4.47;;;3.47;;
59271;SDS011;45043;51.068;7.026;2023-10-31T07:00:58;3.87;;;3.57;;
59271;SDS011;45043;51.068;7.026;2023-10-31T07:04:00;4.47;;;3.87;;
59271;SDS011;45043;51.068;7.026;2023-10-31T07:07:02;4.10;;;3.73;;
59271;SDS011;45043;51.068;7.026;2023-10-31T07:10:03;3.43;;;3.10;;
59271;SDS011;45043;51.068;7.026;2023-10-31T07:13:04;4.20;;;3.50;;
59271;SDS011;45043;51.068;7.026;2023-10-31T07:16:05;4.63;;;3.53;;
59271;SDS011;45043;51.068;7.026;2023-10-31T07:19:07;4.37;;;3.97;;
59271;SDS011;45043;51.068;7.026;2023-10-31T07:22:08;5.30;;;4.23;;
59271;SDS011;45043;51.068;7.026;2023-10-31T07:25:09;6.20;;;4.93;;
59271;SDS011;45043;51.068;7.026;2023-10-31T07:28:10;6.17;;;4.87;;
59271;SDS011;45043;51.068;7.026;2023-10-31T07:31:11;5.17;;;4.73;;
59271;SDS011;45043;51.068;7.026;2023-10-31T07:34:12;5.80;;;5.30;;
59271;SDS011;45043;51.068;7.026;2023-10-31T07:37:13;5.73;;;5.13;;
59271;SDS011;45043;51.068;7.026;2023-10-31T07:40:13;5.90;;;5.37;;
59271;SDS011;45043;51.068;7.026;2023-10-31T07:43:15;5.87;;;5.37;;
59271;SDS011;45043;51.068;7.026;2023-10-31T07:46:16;6.77;;;5.10;;
59271;SDS011;45043;51.068;7.026;2023-10-31T07:49:17;5.60;;;5.07;;
59271;SDS011;45043;51.068;7.026;2023-10-31T07:52:21;5.33;;;4.90;;
59271;SDS011;45043;51.068;7.026;2023-10-31T07:55:21;5.20;;;4.80;;
59271;SDS011;45043;51.068;7.026;2023-10-31T07:58:22;5.13;;;4.70;;
59271;SDS011;45043;51.068;7.026;2023-10-31T08:01:23;5.77;;;4.40;;
59271;SDS011;45043;51.068;7.026;2023-10-31T08:04:24;5.10;;;4.20;;
59271;SDS011;45043;51.068;7.026;2023-10-31T08:07:26;4.30;;;4.00;;
59271;SDS011;45043;51.068;7.026;2023-10-31T08:10:30;4.80;;;4.40;;
59271;SDS011;45043;51.068;7.026;2023-10-31T08:13:31;4.73;;;4.33;;
59271;SDS011;45043;51.068;7.026;2023-10-31T08:16:32;4.27;;;3.87;;
59271;SDS011;45043;51.068;7.026;2023-10-31T08:19:33;4.30;;;3.90;;
59271;SDS011;45043;51.068;7.026;2023-10-31T08:22:35;4.07;;;3.77;;
59271;SDS011;45043;51.068;7.026;2023-10-31T08:25:37;4.07;;;3.77;;
59271;SDS011;45043;51.068;7.026;2023-10-31T08:28:38;4.50;;;3.60;;
59271;SDS011;45043;51.068;7.026;2023-10-31T08:31:39;4.77;;;3.60;;
59271;SDS011;45043;51.068;7.026;2023-10-31T08:34:40;4.10;;;3.33;;
59271;SDS011;45043;51.068;7.026;2023-10-31T08:37:41;5.87;;;3.57;;
59271;SDS011;45043;51.068;7.026;2023-10-31T08:40:42;5.13;;;3.73;;
59271;SDS011;45043;51.068;7.026;2023-10-31T08:43:42;5.23;;;3.83;;
59271;SDS011;45043;51.068;7.026;2023-10-31T08:46:43;4.83;;;4.10;;
59271;SDS011;45043;51.068;7.026;2023-10-31T08:49:44;4.57;;;4.13;;
59271;SDS011;45043;51.068;7.026;2023-10-31T08:52:45;4.13;;;3.73;;
59271;SDS011;45043;51.068;7.026;2023-10-31T08:55:46;4.07;;;3.57;;
59271;SDS011;45043;51.068;7.026;2023-10-31T08:58:47;6.07;;;4.10;;
59271;SDS011;45043;51.068;7.026;2023-10-31T09:01:48;4.57;;;3.70;;
59271;SDS011;45043;51.068;7.026;2023-10-31T09:04:49;4.03;;;3.67;;
59271;SDS011;45043;51.068;7.026;2023-10-31T09:07:50;5.53;;;3.93;;
59271;SDS011;45043;51.068;7.026;2023-10-31T09:10:51;5.27;;;3.40;;
59271;SDS011;45043;51.068;7.026;2023-10-31T09:13:53;3.77;;;3.47;;
59271;SDS011;45043;51.068;7.026;2023-10-31T09:16:54;7.10;;;3.90;;
59271;SDS011;45043;51.068;7.026;2023-10-31T09:19:55;4.53;;;3.60;;
59271;SDS011;45043;51.068;7.026;2023-10-31T09:22:56;5.47;;;4.53;;
59271;SDS011;45043;51.068;7.026;2023-10-31T09:25:56;4.20;;;3.67;;
59271;SDS011;45043;51.068;7.026;2023-10-31T09:28:59;4.40;;;3.97;;
59271;SDS011;45043;51.068;7.026;2023-10-31T09:32:06;5.50;;;4.40;;
59271;SDS011;45043;51.068;7.026;2023-10-31T09:35:07;5.43;;;3.87;;
59271;SDS011;45043;51.068;7.026;2023-10-31T09:38:08;6.77;;;4.57;;
59271;SDS011;45043;51.068;7.026;2023-10-31T09:41:09;7.03;;;4.00;;
59271;SDS011;45043;51.068;7.026;2023-10-31T09:44:10;4.57;;;3.93;;
59271;SDS011;45043;51.068;7.026;2023-10-31T09:47:11;5.47;;;4.13;;
59271;SDS011;45043;51.068;7.026;2023-10-31T09:50:13;6.10;;;3.77;;
59271;SDS011;45043;51.068;7.026;2023-10-31T09:53:16;4.37;;;3.53;;
59271;SDS011;45043;51.068;7.026;2023-10-31T09:56:17;5.23;;;3.60;;
59271;SDS011;45043;51.068;7.026;2023-10-31T09:59:18;4.07;;;3.37;;
59271;SDS011;45043;51.068;7.026;2023-10-31T10:02:20;3.53;;;3.23;;
59271;SDS011;45043;51.068;7.026;2023-10-31T10:05:21;5.23;;;3.03;;
59271;SDS011;45043;51.068;7.026;2023-10-31T10:08:23;4.77;;;3.30;;
59271;SDS011;45043;51.068;7.026;2023-10-31T10:11:24;3.63;;;3.00;;
59271;SDS011;45043;51.068;7.026;2023-10-31T10:14:26;3.67;;;3.03;;
59271;SDS011;45043;51.068;7.026;2023-10-31T10:17:29;3.80;;;2.90;;
59271;SDS011;45043;51.068;7.026;2023-10-31T10:20:29;4.13;;;2.77;;
59271;SDS011;45043;51.068;7.026;2023-10-31T10:23:31;4.60;;;2.30;;
59271;SDS011;45043;51.068;7.026;2023-10-31T10:26:33;2.70;;;2.30;;
59271;SDS011;45043;51.068;7.026;2023-10-31T10:29:34;3.93;;;2.60;;
59271;SDS011;45043;51.068;7.026;2023-10-31T10:32:36;5.03;;;2.30;;
59271;SDS011;45043;51.068;7.026;2023-10-31T10:35:37;3.80;;;2.40;;
59271;SDS011;45043;51.068;7.026;2023-10-31T10:38:38;5.77;;;2.33;;
59271;SDS011;45043;51.068;7.026;2023-10-31T10:41:41;4.40;;;3.27;;
59271;SDS011;45043;51.068;7.026;2023-10-31T10:44:45;9.13;;;3.93;;
59271;SDS011;45043;51.068;7.026;2023-10-31T10:47:49;4.70;;;2.20;;
59271;SDS011;45043;51.068;7.026;2023-10-31T10:50:54;3.40;;;2.23;;
59271;SDS011;45043;51.068;7.026;2023-10-31T10:54:09;3.60;;;2.23;;
59271;SDS011;45043;51.068;7.026;2023-10-31T10:57:21;4.90;;;2.30;;
59271;SDS011;45043;51.068;7.026;2023-10-31T11:00:31;3.83;;;2.10;;
59271;SDS011;45043;51.068;7.026;2023-10-31T11:03:33;3.97;;;2.10;;
59271;SDS011;45043;51.068;7.026;2023-10-31T11:06:35;2.83;;;1.93;;
59271;SDS011;45043;51.068;7.026;2023-10-31T11:09:38;3.03;;;1.90;;
59271;SDS011;45043;51.068;7.026;2023-10-31T11:12:40;3.33;;;1.83;;
59271;SDS011;45043;51.068;7.026;2023-10-31T11:15:41;5.63;;;2.20;;
59271;SDS011;45043;51.068;7.026;2023-10-31T11:18:44;3.13;;;1.77;;
59271;SDS011;45043;51.068;7.026;2023-10-31T11:21:59;4.30;;;1.70;;
59271;SDS011;45043;51.068;7.026;2023-10-31T11:25:02;2.90;;;1.90;;
59271;SDS011;45043;51.068;7.026;2023-10-31T11:28:13;2.83;;;1.70;;
59271;SDS011;45043;51.068;7.026;2023-10-31T11:31:16;3.23;;;1.73;;
59271;SDS011;45043;51.068;7.026;2023-10-31T11:34:17;3.07;;;1.70;;
59271;SDS011;45043;51.068;7.026;2023-10-31T11:37:27;3.80;;;1.50;;
59271;SDS011;45043;51.068;7.026;2023-10-31T11:40:35;5.30;;;1.60;;
59271;SDS011;45043;51.068;7.026;2023-10-31T11:46:41;2.13;;;1.63;;
59271;SDS011;45043;51.068;7.026;2023-10-31T11:49:46;2.80;;;1.50;;
59271;SDS011;45043;51.068;7.026;2023-10-31T11:56:08;2.23;;;1.50;;
59271;SDS011;45043;51.068;7.026;2023-10-31T11:59:11;1.70;;;1.50;;
59271;SDS011;45043;51.068;7.026;2023-10-31T12:02:13;3.33;;;1.33;;
59271;SDS011;45043;51.068;7.026;2023-10-31T12:05:15;2.40;;;1.57;;
59271;SDS011;45043;51.068;7.026;2023-10-31T12:08:24;2.13;;;1.70;;
59271;SDS011;45043;51.068;7.026;2023-10-31T12:11:25;3.53;;;1.73;;
59271;SDS011;45043;51.068;7.026;2023-10-31T12:14:27;3.57;;;1.60;;
59271;SDS011;45043;51.068;7.026;2023-10-31T12:17:28;4.20;;;1.60;;
59271;SDS011;45043;51.068;7.026;2023-10-31T12:20:29;1.93;;;1.40;;
59271;SDS011;45043;51.068;7.026;2023-10-31T12:23:30;3.60;;;1.57;;
59271;SDS011;45043;51.068;7.026;2023-10-31T12:26:32;2.07;;;1.60;;
59271;SDS011;45043;51.068;7.026;2023-10-31T12:29:34;2.17;;;1.40;;
59271;SDS011;45043;51.068;7.026;2023-10-31T12:32:35;3.03;;;1.70;;
59271;SDS011;45043;51.068;7.026;2023-10-31T12:35:36;4.53;;;1.90;;
59271;SDS011;45043;51.068;7.026;2023-10-31T12:38:38;2.33;;;1.70;;
59271;SDS011;45043;51.068;7.026;2023-10-31T12:41:40;3.67;;;1.90;;
59271;SDS011;45043;51.068;7.026;2023-10-31T12:44:42;2.70;;;1.80;;
59271;SDS011;45043;51.068;7.026;2023-10-31T12:47:43;2.57;;;1.30;;
59271;SDS011;45043;51.068;7.026;2023-10-31T12:50:44;5.10;;;1.90;;
59271;SDS011;45043;51.068;7.026;2023-10-31T12:53:51;3.27;;;1.70;;
59271;SDS011;45043;51.068;7.026;2023-10-31T12:56:53;2.47;;;1.60;;
59271;SDS011;45043;51.068;7.026;2023-10-31T12:59:55;2.70;;;1.50;;
59271;SDS011;45043;51.068;7.026;2023-10-31T13:02:59;2.07;;;1.40;;
59271;SDS011;45043;51.068;7.026;2023-10-31T13:06:14;5.70;;;1.77;;
59271;SDS011;45043;51.068;7.026;2023-10-31T13:09:16;2.33;;;1.57;;
59271;SDS011;45043;51.068;7.026;2023-10-31T13:12:19;4.77;;;1.43;;
59271;SDS011;45043;51.068;7.026;2023-10-31T13:15:22;4.13;;;1.57;;
59271;SDS011;45043;51.068;7.026;2023-10-31T13:18:24;5.53;;;1.80;;
59271;SDS011;45043;51.068;7.026;2023-10-31T13:21:25;4.07;;;1.83;;
59271;SDS011;45043;51.068;7.026;2023-10-31T13:24:26;3.03;;;1.77;;
59271;SDS011;45043;51.068;7.026;2023-10-31T13:27:26;4.40;;;1.70;;
59271;SDS011;45043;51.068;7.026;2023-10-31T13:30:28;2.20;;;1.40;;
59271;SDS011;45043;51.068;7.026;2023-10-31T13:33:29;2.87;;;1.40;;
59271;SDS011;45043;51.068;7.026;2023-10-31T13:36:30;3.90;;;1.53;;
59271;SDS011;45043;51.068;7.026;2023-10-31T13:39:31;3.40;;;1.53;;
59271;SDS011;45043;51.068;7.026;2023-10-31T13:42:32;3.23;;;1.40;;
59271;SDS011;45043;51.068;7.026;2023-10-31T13:45:33;6.37;;;1.50;;
59271;SDS011;45043;51.068;7.026;2023-10-31T13:48:34;3.13;;;1.40;;
59271;SDS011;45043;51.068;7.026;2023-10-31T13:51:35;2.77;;;1.60;;
59271;SDS011;45043;51.068;7.026;2023-10-31T13:54:36;4.07;;;1.67;;
59271;SDS011;45043;51.068;7.026;2023-10-31T13:57:37;6.33;;;2.00;;
59271;SDS011;45043;51.068;7.026;2023-10-31T14:00:39;2.07;;;1.40;;
59271;SDS011;45043;51.068;7.026;2023-10-31T14:03:40;6.10;;;1.70;;
59271;SDS011;45043;51.068;7.026;2023-10-31T14:06:41;3.80;;;1.90;;
59271;SDS011;45043;51.068;7.026;2023-10-31T14:09:42;4.53;;;1.83;;
59271;SDS011;45043;51.068;7.026;2023-10-31T14:12:44;4.60;;;1.80;;
59271;SDS011;45043;51.068;7.026;2023-10-31T14:15:45;3.60;;;1.70;;
59271;SDS011;45043;51.068;7.026;2023-10-31T14:18:47;5.37;;;1.83;;
59271;SDS011;45043;51.068;7.026;2023-10-31T14:21:48;2.97;;;1.53;;
59271;SDS011;45043;51.068;7.026;2023-10-31T14:24:49;4.00;;;1.80;;
59271;SDS011;45043;51.068;7.026;2023-10-31T14:27:50;5.70;;;2.57;;
59271;SDS011;45043;51.068;7.026;2023-10-31T14:30:51;4.07;;;1.83;;
59271;SDS011;45043;51.068;7.026;2023-10-31T14:33:52;2.83;;;1.70;;
59271;SDS011;45043;51.068;7.026;2023-10-31T14:36:53;8.53;;;1.73;;
59271;SDS011;45043;51.068;7.026;2023-10-31T14:39:54;5.83;;;1.83;;
59271;SDS011;45043;51.068;7.026;2023-10-31T14:42:54;3.33;;;1.37;;
59271;SDS011;45043;51.068;7.026;2023-10-31T14:45:55;5.87;;;1.90;;
59271;SDS011;45043;51.068;7.026;2023-10-31T14:48:57;5.63;;;1.53;;
59271;SDS011;45043;51.068;7.026;2023-10-31T14:51:58;4.50;;;1.80;;
59271;SDS011;45043;51.068;7.026;2023-10-31T14:54:59;6.43;;;2.10;;
59271;SDS011;45043;51.068;7.026;2023-10-31T14:58:00;5.80;;;1.90;;
59271;SDS011;45043;51.068;7.026;2023-10-31T15:01:01;6.27;;;1.70;;
59271;SDS011;45043;51.068;7.026;2023-10-31T15:04:05;4.17;;;1.57;;
59271;SDS011;45043;51.068;7.026;2023-10-31T15:07:05;6.43;;;1.80;;
59271;SDS011;45043;51.068;7.026;2023-10-31T15:10:07;7.03;;;2.00;;
59271;SDS011;45043;51.068;7.026;2023-10-31T15:13:08;6.17;;;1.90;;
59271;SDS011;45043;51.068;7.026;2023-10-31T15:16:09;4.93;;;1.90;;
59271;SDS011;45043;51.068;7.026;2023-10-31T15:19:11;3.30;;;1.77;;
59271;SDS011;45043;51.068;7.026;2023-10-31T15:22:12;8.03;;;1.70;;
59271;SDS011;45043;51.068;7.026;2023-10-31T15:25:13;5.90;;;1.80;;
59271;SDS011;45043;51.068;7.026;2023-10-31T15:28:15;3.57;;;1.77;;
59271;SDS011;45043;51.068;7.026;2023-10-31T15:31:17;5.60;;;1.70;;
59271;SDS011;45043;51.068;7.026;2023-10-31T15:34:21;6.43;;;2.10;;
59271;SDS011;45043;51.068;7.026;2023-10-31T15:37:24;4.30;;;1.80;;
59271;SDS011;45043;51.068;7.026;2023-10-31T15:40:25;4.50;;;1.87;;
59271;SDS011;45043;51.068;7.026;2023-10-31T15:43:26;5.13;;;1.80;;
59271;SDS011;45043;51.068;7.026;2023-10-31T15:46:27;8.33;;;2.30;;
59271;SDS011;45043;51.068;7.026;2023-10-31T15:49:28;6.37;;;1.77;;
59271;SDS011;45043;51.068;7.026;2023-10-31T15:52:29;5.23;;;2.00;;
59271;SDS011;45043;51.068;7.026;2023-10-31T15:55:30;3.17;;;1.57;;
59271;SDS011;45043;51.068;7.026;2023-10-31T15:58:31;6.47;;;2.07;;
59271;SDS011;45043;51.068;7.026;2023-10-31T16:01:33;4.67;;;1.77;;
59271;SDS011;45043;51.068;7.026;2023-10-31T16:04:33;3.17;;;1.67;;
59271;SDS011;45043;51.068;7.026;2023-10-31T16:07:34;4.00;;;1.63;;
59271;SDS011;45043;51.068;7.026;2023-10-31T16:10:38;6.27;;;1.97;;
59271;SDS011;45043;51.068;7.026;2023-10-31T16:13:40;7.07;;;2.50;;
59271;SDS011;45043;51.068;7.026;2023-10-31T16:16:41;4.67;;;2.47;;
59271;SDS011;45043;51.068;7.026;2023-10-31T16:19:42;3.67;;;1.67;;
59271;SDS011;45043;51.068;7.026;2023-10-31T16:22:44;2.43;;;1.73;;
59271;SDS011;45043;51.068;7.026;2023-10-31T16:25:45;3.83;;;1.80;;
59271;SDS011;45043;51.068;7.026;2023-10-31T16:28:48;5.57;;;2.20;;
59271;SDS011;45043;51.068;7.026;2023-10-31T16:31:50;5.70;;;2.40;;
59271;SDS011;45043;51.068;7.026;2023-10-31T16:34:52;5.33;;;2.43;;
59271;SDS011;45043;51.068;7.026;2023-10-31T16:37:54;4.03;;;2.10;;
59271;SDS011;45043;51.068;7.026;2023-10-31T16:40:55;6.23;;;2.10;;
59271;SDS011;45043;51.068;7.026;2023-10-31T16:43:56;3.03;;;2.00;;
59271;SDS011;45043;51.068;7.026;2023-10-31T16:46:57;4.60;;;2.30;;
59271;SDS011;45043;51.068;7.026;2023-10-31T16:49:59;8.17;;;3.07;;
59271;SDS011;45043;51.068;7.026;2023-10-31T16:53:03;6.07;;;3.37;;
59271;SDS011;45043;51.068;7.026;2023-10-31T16:56:07;6.63;;;2.30;;
59271;SDS011;45043;51.068;7.026;2023-10-31T16:59:09;5.60;;;2.87;;
59271;SDS011;45043;51.068;7.026;2023-10-31T17:02:10;5.53;;;2.30;;
59271;SDS011;45043;51.068;7.026;2023-10-31T17:05:11;4.97;;;2.13;;
59271;SDS011;45043;51.068;7.026;2023-10-31T17:08:12;4.80;;;2.37;;
59271;SDS011;45043;51.068;7.026;2023-10-31T17:11:15;4.13;;;2.50;;
59271;SDS011;45043;51.068;7.026;2023-10-31T17:14:16;3.97;;;2.33;;
59271;SDS011;45043;51.068;7.026;2023-10-31T17:17:17;2.97;;;2.30;;
59271;SDS011;45043;51.068;7.026;2023-10-31T17:20:18;2.93;;;2.27;;
59271;SDS011;45043;51.068;7.026;2023-10-31T17:23:20;4.23;;;1.90;;
59271;SDS011;45043;51.068;7.026;2023-10-31T17:26:22;4.00;;;1.83;;
59271;SDS011;45043;51.068;7.026;2023-10-31T17:29:23;4.27;;;2.13;;
59271;SDS011;45043;51.068;7.026;2023-10-31T17:32:24;4.63;;;2.17;;
59271;SDS011;45043;51.068;7.026;2023-10-31T17:35:25;4.60;;;3.40;;
59271;SDS011;45043;51.068;7.026;2023-10-31T17:38:26;3.20;;;1.80;;
59271;SDS011;45043;51.068;7.026;2023-10-31T17:41:28;5.73;;;3.80;;
59271;SDS011;45043;51.068;7.026;2023-10-31T17:44:29;7.20;;;4.60;;
59271;SDS011;45043;51.068;7.026;2023-10-31T17:47:30;3.43;;;2.40;;
59271;SDS011;45043;51.068;7.026;2023-10-31T17:50:33;3.63;;;2.30;;
59271;SDS011;45043;51.068;7.026;2023-10-31T17:53:34;5.90;;;3.80;;
59271;SDS011;45043;51.068;7.026;2023-10-31T17:56:37;3.83;;;2.97;;
59271;SDS011;45043;51.068;7.026;2023-10-31T17:59:41;5.17;;;2.77;;
59271;SDS011;45043;51.068;7.026;2023-10-31T18:02:42;4.00;;;2.40;;
59271;SDS011;45043;51.068;7.026;2023-10-31T18:05:43;5.37;;;2.40;;
59271;SDS011;45043;51.068;7.026;2023-10-31T18:08:44;3.80;;;2.13;;
59271;SDS011;45043;51.068;7.026;2023-10-31T18:11:46;3.03;;;2.30;;
59271;SDS011;45043;51.068;7.026;2023-10-31T18:14:47;3.97;;;2.53;;
59271;SDS011;45043;51.068;7.026;2023-10-31T18:17:48;3.73;;;2.37;;
59271;SDS011;45043;51.068;7.026;2023-10-31T18:20:49;5.47;;;2.43;;